Gaylord, MI

6:00 AM EST on December 28, 2014 (GMT -0500)
Woodcrest Drive | Change Station
CLOSE
Current Station
Personal Weather Station
Location: Gaylord, MI
Elevation: 1319 ft
Nearby Weather Stations

Elev 1319 ft 45.00 °N, 84.65 °W | Updated 58 seconds ago

Overcast
Overcast
27.0 °F
Feels Like 27 °F
N
1.0
Wind Variable Wind from WSW
Gusts 1.0 mph

Today
High -- | Low -- °F
--% Chance of Precip.
Yesterday
High -- | Low -- °F
Precip. -- in
8:16 AM 5:04 PM
Waxing Crescent, 46% visible
Pressure 29.99 in
Visibility 10.0 miles
Clouds Overcast 2400 ft
Windchill 27 °F
Dew Point 21 °F
Humidity 77%
Rainfall 0.00 in
Snow Depth Not available.
UV 0.0 out of 12
Pollen .10 out of 12
Air Quality Not available.
Flu Activity Not available.
METAR KGLR 281053Z AUTO 28008KT 10SM OVC024 M03/M07 A2994 RMK AO2 SLP154 T10281072

More Conditions Fewer Conditions

Pressure 29.99 in
Visibility 10.0 miles
Clouds Overcast 2400 ft
Windchill 27 °F
Dew Point 21 °F
Humidity 77%
Rainfall 0.00 in
Snow Depth Not available.
UV 0.0 out of 12
Pollen .10 out of 12
Air Quality Not available.
Flu Activity Not available.
METAR KGLR 281053Z AUTO 28008KT 10SM OVC024 M03/M07 A2994 RMK AO2 SLP154 T10281072

More Conditions Fewer Conditions

Nowcast | as of 5:00 am EST on December 28, 2014

At 6 am...mostly cloudy. Scattered flurries. Temperature 24. West winds 7 mph. At 8 am...mostly cloudy. Scattered flurries. Temperature 27. West winds 8 mph. At 10 am...mostly cloudy. Scattered flurries. Temperature 24. West winds 10 mph. At 12 PM...mostly cloudy. Scattered flurries. Temperature 26. West winds 12 mph.

×

10-Day Weather Forecast

Almanac

Astronomy

Dec. 28, 2014 Rise Set
Actual Time
Civil Twilight
Nautical Twilight
Astronomical Twilight
Moon
Length of Visible Light
Length of Day
Tomorrow will be .
, % of the Moon is Illuminated

Today's Extremes

State Highs State Lows

Community

WunderPhotos

Upload Photos

1,781,232 photos uploaded!

WunderBlogs® & News

Nearby

Air Quality

  Air Quality AQ Index Pollutant
Not available.

Snow Depth

Station Depth Elevation

Earthquake Activity

City Distance Mag. Time & Date
Minimum magnitude displayed is 2.5.

Coastal Water Temperatures

Place Temperature

Nearby Weather Stations